sensor_id;sensor_type;location;lat;lon;timestamp;temperature;humidity
67862;DHT22;54665;51.462;6.698;2023-07-24T00:01:38;17.02;95.50
67862;DHT22;54665;51.462;6.698;2023-07-24T00:03:38;17.04;95.57
67862;DHT22;54665;51.462;6.698;2023-07-24T00:05:38;16.98;95.66
67862;DHT22;54665;51.462;6.698;2023-07-24T00:07:39;16.91;95.57
67862;DHT22;54665;51.462;6.698;2023-07-24T00:09:39;16.98;95.85
67862;DHT22;54665;51.462;6.698;2023-07-24T00:11:39;16.98;95.71
67862;DHT22;54665;51.462;6.698;2023-07-24T00:13:39;16.94;95.66
67862;DHT22;54665;51.462;6.698;2023-07-24T00:15:40;16.91;95.73
67862;DHT22;54665;51.462;6.698;2023-07-24T00:17:40;16.92;95.83
67862;DHT22;54665;51.462;6.698;2023-07-24T00:19:40;16.92;95.83
67862;DHT22;54665;51.462;6.698;2023-07-24T00:21:41;16.95;95.97
67862;DHT22;54665;51.462;6.698;2023-07-24T00:23:41;16.91;95.84
67862;DHT22;54665;51.462;6.698;2023-07-24T00:25:41;16.92;96.01
67862;DHT22;54665;51.462;6.698;2023-07-24T00:27:41;16.95;96.09
67862;DHT22;54665;51.462;6.698;2023-07-24T00:29:42;16.92;96.01
67862;DHT22;54665;51.462;6.698;2023-07-24T00:31:42;16.98;96.15
67862;DHT22;54665;51.462;6.698;2023-07-24T00:33:43;16.95;96.16
67862;DHT22;54665;51.462;6.698;2023-07-24T00:35:45;16.91;96.18
67862;DHT22;54665;51.462;6.698;2023-07-24T00:37:46;16.88;96.15
67862;DHT22;54665;51.462;6.698;2023-07-24T00:39:46;16.91;96.24
67862;DHT22;54665;51.462;6.698;2023-07-24T00:41:47;16.85;96.08
67862;DHT22;54665;51.462;6.698;2023-07-24T00:43:48;16.78;96.02
67862;DHT22;54665;51.462;6.698;2023-07-24T00:45:48;16.72;96.21
67862;DHT22;54665;51.462;6.698;2023-07-24T00:47:49;16.74;96.12
67862;DHT22;54665;51.462;6.698;2023-07-24T00:49:49;16.72;96.26
67862;DHT22;54665;51.462;6.698;2023-07-24T00:51:51;16.74;96.31
67862;DHT22;54665;51.462;6.698;2023-07-24T00:53:54;16.78;96.29
67862;DHT22;54665;51.462;6.698;2023-07-24T00:55:55;16.75;96.25
67862;DHT22;54665;51.462;6.698;2023-07-24T00:57:57;16.75;96.23
67862;DHT22;54665;51.462;6.698;2023-07-24T00:59:59;16.74;96.11
67862;DHT22;54665;51.462;6.698;2023-07-24T01:01:59;16.68;96.10
67862;DHT22;54665;51.462;6.698;2023-07-24T01:04:00;16.69;96.44
67862;DHT22;54665;51.462;6.698;2023-07-24T01:06:02;16.69;96.28
67862;DHT22;54665;51.462;6.698;2023-07-24T01:08:02;16.65;96.26
67862;DHT22;54665;51.462;6.698;2023-07-24T01:10:04;16.69;96.38
67862;DHT22;54665;51.462;6.698;2023-07-24T01:12:11;16.69;96.33
67862;DHT22;54665;51.462;6.698;2023-07-24T01:14:46;16.68;96.25
67862;DHT22;54665;51.462;6.698;2023-07-24T01:16:47;16.69;96.27
67862;DHT22;54665;51.462;6.698;2023-07-24T01:18:50;16.75;96.27
67862;DHT22;54665;51.462;6.698;2023-07-24T01:20:55;16.82;96.09
67862;DHT22;54665;51.462;6.698;2023-07-24T01:25:32;16.81;96.25
67862;DHT22;54665;51.462;6.698;2023-07-24T01:27:33;16.74;96.28
67862;DHT22;54665;51.462;6.698;2023-07-24T01:29:33;16.78;96.44
67862;DHT22;54665;51.462;6.698;2023-07-24T01:31:33;16.77;96.31
67862;DHT22;54665;51.462;6.698;2023-07-24T01:33:34;16.75;96.48
67862;DHT22;54665;51.462;6.698;2023-07-24T01:35:34;16.81;96.44
67862;DHT22;54665;51.462;6.698;2023-07-24T01:37:35;16.92;96.35
67862;DHT22;54665;51.462;6.698;2023-07-24T01:39:37;17.04;96.26
67862;DHT22;54665;51.462;6.698;2023-07-24T01:41:38;17.05;96.18
67862;DHT22;54665;51.462;6.698;2023-07-24T01:43:38;17.05;96.02
67862;DHT22;54665;51.462;6.698;2023-07-24T01:45:39;17.08;96.00
67862;DHT22;54665;51.462;6.698;2023-07-24T01:47:40;17.05;95.95
67862;DHT22;54665;51.462;6.698;2023-07-24T01:49:40;16.99;95.92
67862;DHT22;54665;51.462;6.698;2023-07-24T01:51:41;16.95;95.83
67862;DHT22;54665;51.462;6.698;2023-07-24T01:53:41;16.92;95.95
67862;DHT22;54665;51.462;6.698;2023-07-24T01:55:42;16.94;96.11
67862;DHT22;54665;51.462;6.698;2023-07-24T01:57:42;16.91;96.11
67862;DHT22;54665;51.462;6.698;2023-07-24T01:59:42;16.88;96.19
67862;DHT22;54665;51.462;6.698;2023-07-24T02:01:43;16.94;96.17
67862;DHT22;54665;51.462;6.698;2023-07-24T02:03:43;17.04;96.17
67862;DHT22;54665;51.462;6.698;2023-07-24T02:05:49;17.06;96.04
67862;DHT22;54665;51.462;6.698;2023-07-24T02:07:50;17.12;96.01
67862;DHT22;54665;51.462;6.698;2023-07-24T02:09:50;17.15;96.02
67862;DHT22;54665;51.462;6.698;2023-07-24T02:11:50;17.15;96.06
67862;DHT22;54665;51.462;6.698;2023-07-24T02:13:51;17.23;96.13
67862;DHT22;54665;51.462;6.698;2023-07-24T02:15:51;17.29;95.89
67862;DHT22;54665;51.462;6.698;2023-07-24T02:17:52;17.32;95.75
67862;DHT22;54665;51.462;6.698;2023-07-24T02:19:52;17.33;95.71
67862;DHT22;54665;51.462;6.698;2023-07-24T02:21:52;17.33;95.62
67862;DHT22;54665;51.462;6.698;2023-07-24T02:23:53;17.32;95.65
67862;DHT22;54665;51.462;6.698;2023-07-24T02:25:53;17.29;95.77
67862;DHT22;54665;51.462;6.698;2023-07-24T02:27:53;17.27;95.67
67862;DHT22;54665;51.462;6.698;2023-07-24T02:29:54;17.32;95.56
67862;DHT22;54665;51.462;6.698;2023-07-24T02:31:54;17.35;95.38
67862;DHT22;54665;51.462;6.698;2023-07-24T02:33:54;17.40;95.43
67862;DHT22;54665;51.462;6.698;2023-07-24T02:35:55;17.46;95.23
67862;DHT22;54665;51.462;6.698;2023-07-24T02:37:55;17.47;95.11
67862;DHT22;54665;51.462;6.698;2023-07-24T02:39:56;17.53;94.78
67862;DHT22;54665;51.462;6.698;2023-07-24T02:41:56;17.54;94.69
67862;DHT22;54665;51.462;6.698;2023-07-24T02:43:58;17.59;94.43
67862;DHT22;54665;51.462;6.698;2023-07-24T02:46:02;17.63;94.22
67862;DHT22;54665;51.462;6.698;2023-07-24T02:48:02;17.65;94.27
67862;DHT22;54665;51.462;6.698;2023-07-24T02:50:04;17.59;94.48
67862;DHT22;54665;51.462;6.698;2023-07-24T02:52:05;17.60;94.56
67862;DHT22;54665;51.462;6.698;2023-07-24T02:54:06;17.60;94.60
67862;DHT22;54665;51.462;6.698;2023-07-24T02:56:06;17.65;94.61
67862;DHT22;54665;51.462;6.698;2023-07-24T02:58:06;17.59;94.55
67862;DHT22;54665;51.462;6.698;2023-07-24T03:00:07;17.65;94.58
67862;DHT22;54665;51.462;6.698;2023-07-24T03:02:07;17.65;94.63
67862;DHT22;54665;51.462;6.698;2023-07-24T03:04:08;17.63;94.75
67862;DHT22;54665;51.462;6.698;2023-07-24T03:06:08;17.65;94.70
67862;DHT22;54665;51.462;6.698;2023-07-24T03:08:08;17.62;94.74
67862;DHT22;54665;51.462;6.698;2023-07-24T03:10:09;17.63;94.74
67862;DHT22;54665;51.462;6.698;2023-07-24T03:12:09;17.62;94.87
67862;DHT22;54665;51.462;6.698;2023-07-24T03:14:10;17.56;94.97
67862;DHT22;54665;51.462;6.698;2023-07-24T03:16:10;17.63;95.00
67862;DHT22;54665;51.462;6.698;2023-07-24T03:18:10;17.63;94.96
67862;DHT22;54665;51.462;6.698;2023-07-24T03:20:18;17.62;94.94
67862;DHT22;54665;51.462;6.698;2023-07-24T03:22:18;17.60;94.98
67862;DHT22;54665;51.462;6.698;2023-07-24T03:24:18;17.57;95.05
67862;DHT22;54665;51.462;6.698;2023-07-24T03:26:19;17.59;95.03
67862;DHT22;54665;51.462;6.698;2023-07-24T03:28:20;17.59;95.10
67862;DHT22;54665;51.462;6.698;2023-07-24T03:30:21;17.54;95.13
67862;DHT22;54665;51.462;6.698;2023-07-24T03:32:22;17.54;95.16
67862;DHT22;54665;51.462;6.698;2023-07-24T03:34:22;17.53;95.16
67862;DHT22;54665;51.462;6.698;2023-07-24T03:36:22;17.54;95.13
67862;DHT22;54665;51.462;6.698;2023-07-24T03:38:22;17.57;95.21
67862;DHT22;54665;51.462;6.698;2023-07-24T03:40:24;17.51;95.23
67862;DHT22;54665;51.462;6.698;2023-07-24T03:42:34;17.53;95.32
67862;DHT22;54665;51.462;6.698;2023-07-24T03:44:35;17.49;95.37
67862;DHT22;54665;51.462;6.698;2023-07-24T03:46:35;17.50;95.41
67862;DHT22;54665;51.462;6.698;2023-07-24T03:48:35;17.51;95.39
67862;DHT22;54665;51.462;6.698;2023-07-24T03:50:35;17.53;95.43
67862;DHT22;54665;51.462;6.698;2023-07-24T03:52:36;17.51;95.30
67862;DHT22;54665;51.462;6.698;2023-07-24T03:54:37;17.53;95.39
67862;DHT22;54665;51.462;6.698;2023-07-24T03:56:37;17.51;95.48
67862;DHT22;54665;51.462;6.698;2023-07-24T03:58:37;17.50;95.48
67862;DHT22;54665;51.462;6.698;2023-07-24T04:00:38;17.47;95.52
67862;DHT22;54665;51.462;6.698;2023-07-24T04:02:38;17.47;95.60
67862;DHT22;54665;51.462;6.698;2023-07-24T04:04:38;17.45;95.52
67862;DHT22;54665;51.462;6.698;2023-07-24T04:06:39;17.45;95.66
67862;DHT22;54665;51.462;6.698;2023-07-24T04:08:39;17.45;95.62
67862;DHT22;54665;51.462;6.698;2023-07-24T04:10:39;17.45;95.68
67862;DHT22;54665;51.462;6.698;2023-07-24T04:12:40;17.47;95.62
67862;DHT22;54665;51.462;6.698;2023-07-24T04:14:40;17.47;95.44
67862;DHT22;54665;51.462;6.698;2023-07-24T04:16:40;17.49;95.44
67862;DHT22;54665;51.462;6.698;2023-07-24T04:18:40;17.50;95.42
67862;DHT22;54665;51.462;6.698;2023-07-24T04:20:41;17.51;95.46
67862;DHT22;54665;51.462;6.698;2023-07-24T04:22:41;17.50;95.55
67862;DHT22;54665;51.462;6.698;2023-07-24T04:24:41;17.49;95.49
67862;DHT22;54665;51.462;6.698;2023-07-24T04:26:42;17.53;95.44
67862;DHT22;54665;51.462;6.698;2023-07-24T04:28:42;17.50;95.41
67862;DHT22;54665;51.462;6.698;2023-07-24T04:30:43;17.50;95.49
67862;DHT22;54665;51.462;6.698;2023-07-24T04:32:43;17.51;95.43
67862;DHT22;54665;51.462;6.698;2023-07-24T04:34:43;17.54;95.43
67862;DHT22;54665;51.462;6.698;2023-07-24T04:36:43;17.50;95.45
67862;DHT22;54665;51.462;6.698;2023-07-24T04:38:44;17.45;95.41
67862;DHT22;54665;51.462;6.698;2023-07-24T04:40:44;17.45;95.54
67862;DHT22;54665;51.462;6.698;2023-07-24T04:42:44;17.46;95.46
67862;DHT22;54665;51.462;6.698;2023-07-24T04:44:45;17.46;95.49
67862;DHT22;54665;51.462;6.698;2023-07-24T04:46:45;17.47;95.35
67862;DHT22;54665;51.462;6.698;2023-07-24T04:48:45;17.51;95.50
67862;DHT22;54665;51.462;6.698;2023-07-24T04:50:45;17.60;95.46
67862;DHT22;54665;51.462;6.698;2023-07-24T04:52:46;17.60;95.53
67862;DHT22;54665;51.462;6.698;2023-07-24T04:54:46;17.62;95.36
67862;DHT22;54665;51.462;6.698;2023-07-24T04:56:46;17.62;95.36
67862;DHT22;54665;51.462;6.698;2023-07-24T04:58:47;17.67;95.37
67862;DHT22;54665;51.462;6.698;2023-07-24T05:00:47;17.67;95.18
67862;DHT22;54665;51.462;6.698;2023-07-24T05:02:47;17.63;95.01
67862;DHT22;54665;51.462;6.698;2023-07-24T05:04:48;17.71;95.07
67862;DHT22;54665;51.462;6.698;2023-07-24T05:06:48;17.74;95.19
67862;DHT22;54665;51.462;6.698;2023-07-24T05:08:48;17.76;95.27
67862;DHT22;54665;51.462;6.698;2023-07-24T05:10:56;17.76;94.85
67862;DHT22;54665;51.462;6.698;2023-07-24T05:12:56;17.76;95.09
67862;DHT22;54665;51.462;6.698;2023-07-24T05:14:57;17.74;94.97
67862;DHT22;54665;51.462;6.698;2023-07-24T05:16:57;17.78;95.09
67862;DHT22;54665;51.462;6.698;2023-07-24T05:18:57;17.77;94.92
67862;DHT22;54665;51.462;6.698;2023-07-24T05:20:58;17.78;94.93
67862;DHT22;54665;51.462;6.698;2023-07-24T05:22:58;17.77;94.88
67862;DHT22;54665;51.462;6.698;2023-07-24T05:24:58;17.84;95.01
67862;DHT22;54665;51.462;6.698;2023-07-24T05:26:59;17.91;94.79
67862;DHT22;54665;51.462;6.698;2023-07-24T05:28:59;17.93;94.46
67862;DHT22;54665;51.462;6.698;2023-07-24T05:31:03;18.04;94.36
67862;DHT22;54665;51.462;6.698;2023-07-24T05:33:04;18.07;94.30
67862;DHT22;54665;51.462;6.698;2023-07-24T05:35:05;18.02;94.21
67862;DHT22;54665;51.462;6.698;2023-07-24T05:37:05;18.05;94.24
67862;DHT22;54665;51.462;6.698;2023-07-24T05:39:05;18.00;94.16
67862;DHT22;54665;51.462;6.698;2023-07-24T05:41:06;17.97;94.14
67862;DHT22;54665;51.462;6.698;2023-07-24T05:43:06;18.04;94.41
67862;DHT22;54665;51.462;6.698;2023-07-24T05:45:07;18.07;94.08
67862;DHT22;54665;51.462;6.698;2023-07-24T05:47:08;18.11;94.33
67862;DHT22;54665;51.462;6.698;2023-07-24T05:49:08;18.08;93.99
67862;DHT22;54665;51.462;6.698;2023-07-24T05:51:08;18.14;93.94
67862;DHT22;54665;51.462;6.698;2023-07-24T05:53:09;18.32;94.13
67862;DHT22;54665;51.462;6.698;2023-07-24T05:55:09;18.32;93.36
67862;DHT22;54665;51.462;6.698;2023-07-24T05:57:09;18.41;93.84
67862;DHT22;54665;51.462;6.698;2023-07-24T05:59:10;18.48;93.88
67862;DHT22;54665;51.462;6.698;2023-07-24T06:01:10;18.53;93.93
67862;DHT22;54665;51.462;6.698;2023-07-24T06:03:10;18.45;93.60
67862;DHT22;54665;51.462;6.698;2023-07-24T06:05:11;18.42;93.51
67862;DHT22;54665;51.462;6.698;2023-07-24T06:07:11;18.48;93.66
67862;DHT22;54665;51.462;6.698;2023-07-24T06:09:11;18.38;93.38
67862;DHT22;54665;51.462;6.698;2023-07-24T06:11:11;18.29;93.01
67862;DHT22;54665;51.462;6.698;2023-07-24T06:13:12;18.31;93.44
67862;DHT22;54665;51.462;6.698;2023-07-24T06:15:12;18.35;93.51
67862;DHT22;54665;51.462;6.698;2023-07-24T06:17:12;18.41;93.04
67862;DHT22;54665;51.462;6.698;2023-07-24T06:19:13;18.37;93.36
67862;DHT22;54665;51.462;6.698;2023-07-24T06:21:13;18.45;93.14
67862;DHT22;54665;51.462;6.698;2023-07-24T06:23:13;18.49;93.30
67862;DHT22;54665;51.462;6.698;2023-07-24T06:25:13;18.49;93.30
67862;DHT22;54665;51.462;6.698;2023-07-24T06:27:14;18.51;93.32
67862;DHT22;54665;51.462;6.698;2023-07-24T06:29:15;18.52;93.28
67862;DHT22;54665;51.462;6.698;2023-07-24T06:31:15;18.48;92.95
67862;DHT22;54665;51.462;6.698;2023-07-24T06:33:15;18.49;92.97
67862;DHT22;54665;51.462;6.698;2023-07-24T06:35:15;18.51;92.99
67862;DHT22;54665;51.462;6.698;2023-07-24T06:37:16;18.53;92.98
67862;DHT22;54665;51.462;6.698;2023-07-24T06:39:16;18.47;93.04
67862;DHT22;54665;51.462;6.698;2023-07-24T06:41:16;18.47;92.95
67862;DHT22;54665;51.462;6.698;2023-07-24T06:43:17;18.48;93.18
67862;DHT22;54665;51.462;6.698;2023-07-24T06:45:17;18.48;93.05
67862;DHT22;54665;51.462;6.698;2023-07-24T06:47:17;18.42;93.18
67862;DHT22;54665;51.462;6.698;2023-07-24T06:49:18;18.32;93.35
67862;DHT22;54665;51.462;6.698;2023-07-24T06:51:18;18.37;93.26
67862;DHT22;54665;51.462;6.698;2023-07-24T06:53:18;18.42;92.90
67862;DHT22;54665;51.462;6.698;2023-07-24T06:55:19;18.49;92.88
67862;DHT22;54665;51.462;6.698;2023-07-24T06:57:19;18.53;93.16
67862;DHT22;54665;51.462;6.698;2023-07-24T06:59:20;18.44;93.37
67862;DHT22;54665;51.462;6.698;2023-07-24T07:01:20;18.39;93.30
67862;DHT22;54665;51.462;6.698;2023-07-24T07:03:20;18.15;92.72
67862;DHT22;54665;51.462;6.698;2023-07-24T07:05:21;17.83;92.80
67862;DHT22;54665;51.462;6.698;2023-07-24T07:07:21;17.81;93.17
67862;DHT22;54665;51.462;6.698;2023-07-24T07:09:21;17.96;92.82
67862;DHT22;54665;51.462;6.698;2023-07-24T07:11:22;18.00;92.89
67862;DHT22;54665;51.462;6.698;2023-07-24T07:13:22;18.02;92.48
67862;DHT22;54665;51.462;6.698;2023-07-24T07:15:22;18.11;92.61
67862;DHT22;54665;51.462;6.698;2023-07-24T07:17:23;18.18;92.55
67862;DHT22;54665;51.462;6.698;2023-07-24T07:19:23;18.14;91.89
67862;DHT22;54665;51.462;6.698;2023-07-24T07:21:23;18.25;91.96
67862;DHT22;54665;51.462;6.698;2023-07-24T07:23:24;18.31;91.87
67862;DHT22;54665;51.462;6.698;2023-07-24T07:25:24;18.45;91.47
67862;DHT22;54665;51.462;6.698;2023-07-24T07:27:24;18.69;91.21
67862;DHT22;54665;51.462;6.698;2023-07-24T07:29:24;18.89;90.62
67862;DHT22;54665;51.462;6.698;2023-07-24T07:31:25;19.19;89.85
67862;DHT22;54665;51.462;6.698;2023-07-24T07:33:25;19.16;89.29
67862;DHT22;54665;51.462;6.698;2023-07-24T07:35:26;19.30;89.69
67862;DHT22;54665;51.462;6.698;2023-07-24T07:37:26;19.35;88.71
67862;DHT22;54665;51.462;6.698;2023-07-24T07:39:26;19.16;88.74
67862;DHT22;54665;51.462;6.698;2023-07-24T07:41:27;19.23;89.14
67862;DHT22;54665;51.462;6.698;2023-07-24T07:43:27;19.09;88.95
67862;DHT22;54665;51.462;6.698;2023-07-24T07:45:27;18.99;89.53
67862;DHT22;54665;51.462;6.698;2023-07-24T07:47:28;18.93;89.81
67862;DHT22;54665;51.462;6.698;2023-07-24T07:49:28;19.40;89.27
67862;DHT22;54665;51.462;6.698;2023-07-24T07:51:29;19.43;88.40
67862;DHT22;54665;51.462;6.698;2023-07-24T07:53:29;19.41;88.63
67862;DHT22;54665;51.462;6.698;2023-07-24T07:55:29;19.09;89.83
67862;DHT22;54665;51.462;6.698;2023-07-24T07:57:30;19.10;89.45
67862;DHT22;54665;51.462;6.698;2023-07-24T07:59:30;19.17;89.66
67862;DHT22;54665;51.462;6.698;2023-07-24T08:01:30;18.98;89.20
67862;DHT22;54665;51.462;6.698;2023-07-24T08:03:31;19.23;89.24
67862;DHT22;54665;51.462;6.698;2023-07-24T08:05:31;19.06;88.36
67862;DHT22;54665;51.462;6.698;2023-07-24T08:07:31;19.02;88.44
67862;DHT22;54665;51.462;6.698;2023-07-24T08:09:32;19.03;88.13
67862;DHT22;54665;51.462;6.698;2023-07-24T08:11:32;19.21;87.69
67862;DHT22;54665;51.462;6.698;2023-07-24T08:13:33;19.53;86.36
67862;DHT22;54665;51.462;6.698;2023-07-24T08:15:37;19.65;86.75
67862;DHT22;54665;51.462;6.698;2023-07-24T08:17:37;20.15;84.69
67862;DHT22;54665;51.462;6.698;2023-07-24T08:19:38;20.29;84.99
67862;DHT22;54665;51.462;6.698;2023-07-24T08:21:38;19.99;84.58
67862;DHT22;54665;51.462;6.698;2023-07-24T08:23:38;19.92;85.56
67862;DHT22;54665;51.462;6.698;2023-07-24T08:25:38;20.04;85.42
67862;DHT22;54665;51.462;6.698;2023-07-24T08:27:39;20.18;85.29
67862;DHT22;54665;51.462;6.698;2023-07-24T08:29:39;20.37;84.32
67862;DHT22;54665;51.462;6.698;2023-07-24T08:31:39;20.98;84.38
67862;DHT22;54665;51.462;6.698;2023-07-24T08:33:40;20.95;83.57
67862;DHT22;54665;51.462;6.698;2023-07-24T08:35:40;20.56;83.91
67862;DHT22;54665;51.462;6.698;2023-07-24T08:37:42;21.27;82.69
67862;DHT22;54665;51.462;6.698;2023-07-24T08:39:43;21.32;82.61
67862;DHT22;54665;51.462;6.698;2023-07-24T08:41:43;20.67;84.37
67862;DHT22;54665;51.462;6.698;2023-07-24T08:43:44;21.14;82.85
67862;DHT22;54665;51.462;6.698;2023-07-24T08:45:44;21.21;82.25
67862;DHT22;54665;51.462;6.698;2023-07-24T08:47:45;21.76;80.67
67862;DHT22;54665;51.462;6.698;2023-07-24T08:49:46;20.74;82.56
67862;DHT22;54665;51.462;6.698;2023-07-24T08:51:47;21.99;80.18
67862;DHT22;54665;51.462;6.698;2023-07-24T08:53:48;21.63;79.34
67862;DHT22;54665;51.462;6.698;2023-07-24T08:55:49;21.90;78.24
67862;DHT22;54665;51.462;6.698;2023-07-24T08:57:49;22.30;78.50
67862;DHT22;54665;51.462;6.698;2023-07-24T08:59:49;22.78;78.68
67862;DHT22;54665;51.462;6.698;2023-07-24T09:01:50;22.99;74.96
67862;DHT22;54665;51.462;6.698;2023-07-24T09:03:50;22.51;75.36
67862;DHT22;54665;51.462;6.698;2023-07-24T09:05:50;22.57;76.03
67862;DHT22;54665;51.462;6.698;2023-07-24T09:07:52;23.15;78.07
67862;DHT22;54665;51.462;6.698;2023-07-24T09:09:53;23.01;76.45
67862;DHT22;54665;51.462;6.698;2023-07-24T09:11:54;22.12;76.16
67862;DHT22;54665;51.462;6.698;2023-07-24T09:13:54;21.42;78.90
67862;DHT22;54665;51.462;6.698;2023-07-24T09:15:54;21.14;79.50
67862;DHT22;54665;51.462;6.698;2023-07-24T09:17:55;21.15;79.95
67862;DHT22;54665;51.462;6.698;2023-07-24T09:19:56;21.14;80.02
67862;DHT22;54665;51.462;6.698;2023-07-24T09:22:13;20.90;80.22
67862;DHT22;54665;51.462;6.698;2023-07-24T09:24:14;22.43;76.19
67862;DHT22;54665;51.462;6.698;2023-07-24T09:26:14;23.27;74.66
67862;DHT22;54665;51.462;6.698;2023-07-24T09:28:16;23.81;73.06
67862;DHT22;54665;51.462;6.698;2023-07-24T09:30:17;23.62;72.85
67862;DHT22;54665;51.462;6.698;2023-07-24T09:32:25;22.87;76.64
67862;DHT22;54665;51.462;6.698;2023-07-24T09:34:26;22.60;76.08
67862;DHT22;54665;51.462;6.698;2023-07-24T09:36:37;22.79;75.33
67862;DHT22;54665;51.462;6.698;2023-07-24T09:38:38;22.76;76.81
67862;DHT22;54665;51.462;6.698;2023-07-24T09:40:41;22.48;76.35
67862;DHT22;54665;51.462;6.698;2023-07-24T09:42:41;22.48;75.30
67862;DHT22;54665;51.462;6.698;2023-07-24T09:44:42;22.55;75.98
67862;DHT22;54665;51.462;6.698;2023-07-24T09:46:43;22.90;75.06
67862;DHT22;54665;51.462;6.698;2023-07-24T09:48:43;23.26;74.50
67862;DHT22;54665;51.462;6.698;2023-07-24T09:50:45;23.05;74.26
67862;DHT22;54665;51.462;6.698;2023-07-24T09:52:47;23.19;74.55
67862;DHT22;54665;51.462;6.698;2023-07-24T09:57:13;23.70;71.66
67862;DHT22;54665;51.462;6.698;2023-07-24T09:59:13;24.13;72.46
67862;DHT22;54665;51.462;6.698;2023-07-24T10:01:15;24.35;73.30
67862;DHT22;54665;51.462;6.698;2023-07-24T10:03:15;24.76;71.98
67862;DHT22;54665;51.462;6.698;2023-07-24T10:05:17;24.69;69.12
67862;DHT22;54665;51.462;6.698;2023-07-24T10:07:17;24.68;70.84
67862;DHT22;54665;51.462;6.698;2023-07-24T10:09:18;24.47;71.63
67862;DHT22;54665;51.462;6.698;2023-07-24T10:11:19;24.90;69.98
67862;DHT22;54665;51.462;6.698;2023-07-24T10:13:21;24.65;71.48
67862;DHT22;54665;51.462;6.698;2023-07-24T10:15:22;23.54;71.42
67862;DHT22;54665;51.462;6.698;2023-07-24T10:17:39;23.86;73.60
67862;DHT22;54665;51.462;6.698;2023-07-24T10:19:40;23.77;75.45
67862;DHT22;54665;51.462;6.698;2023-07-24T10:21:47;23.05;77.16
67862;DHT22;54665;51.462;6.698;2023-07-24T10:23:47;22.95;78.57
67862;DHT22;54665;51.462;6.698;2023-07-24T10:25:49;22.74;79.93
67862;DHT22;54665;51.462;6.698;2023-07-24T10:27:50;22.60;78.63
67862;DHT22;54665;51.462;6.698;2023-07-24T10:30:00;22.36;79.96
67862;DHT22;54665;51.462;6.698;2023-07-24T10:32:01;21.93;78.88
67862;DHT22;54665;51.462;6.698;2023-07-24T10:34:05;21.61;81.57
67862;DHT22;54665;51.462;6.698;2023-07-24T10:36:08;21.11;81.44
67862;DHT22;54665;51.462;6.698;2023-07-24T10:38:09;21.01;83.00
67862;DHT22;54665;51.462;6.698;2023-07-24T10:40:19;20.70;83.11
67862;DHT22;54665;51.462;6.698;2023-07-24T10:42:22;20.47;84.42
67862;DHT22;54665;51.462;6.698;2023-07-24T10:44:32;20.19;83.90
67862;DHT22;54665;51.462;6.698;2023-07-24T10:46:37;20.20;84.61
67862;DHT22;54665;51.462;6.698;2023-07-24T10:48:42;20.11;85.32
67862;DHT22;54665;51.462;6.698;2023-07-24T10:50:47;20.15;86.37
67862;DHT22;54665;51.462;6.698;2023-07-24T10:52:47;20.20;86.60
67862;DHT22;54665;51.462;6.698;2023-07-24T10:54:50;20.28;86.95
67862;DHT22;54665;51.462;6.698;2023-07-24T10:57:00;20.32;87.40
67862;DHT22;54665;51.462;6.698;2023-07-24T10:59:04;20.43;87.08
67862;DHT22;54665;51.462;6.698;2023-07-24T11:01:06;20.42;87.03
67862;DHT22;54665;51.462;6.698;2023-07-24T11:03:11;20.23;86.82
67862;DHT22;54665;51.462;6.698;2023-07-24T11:05:12;20.06;87.36
67862;DHT22;54665;51.462;6.698;2023-07-24T11:07:14;19.91;87.78
67862;DHT22;54665;51.462;6.698;2023-07-24T11:09:14;19.70;88.83
67862;DHT22;54665;51.462;6.698;2023-07-24T11:11:15;19.47;89.68
67862;DHT22;54665;51.462;6.698;2023-07-24T11:13:16;19.02;90.64
67862;DHT22;54665;51.462;6.698;2023-07-24T11:15:24;18.86;91.13
67862;DHT22;54665;51.462;6.698;2023-07-24T11:17:38;18.75;91.46
67862;DHT22;54665;51.462;6.698;2023-07-24T11:19:38;18.66;91.94
67862;DHT22;54665;51.462;6.698;2023-07-24T11:21:40;18.65;91.84
67862;DHT22;54665;51.462;6.698;2023-07-24T11:23:49;18.65;91.83
67862;DHT22;54665;51.462;6.698;2023-07-24T11:25:51;18.60;91.81
67862;DHT22;54665;51.462;6.698;2023-07-24T11:27:51;18.51;91.58
67862;DHT22;54665;51.462;6.698;2023-07-24T11:29:52;18.35;91.83
67862;DHT22;54665;51.462;6.698;2023-07-24T11:31:54;18.32;91.62
67862;DHT22;54665;51.462;6.698;2023-07-24T11:33:54;18.24;91.66
67862;DHT22;54665;51.462;6.698;2023-07-24T11:35:55;18.17;92.12
67862;DHT22;54665;51.462;6.698;2023-07-24T11:37:55;18.14;92.21
67862;DHT22;54665;51.462;6.698;2023-07-24T11:40:00;18.31;92.22
67862;DHT22;54665;51.462;6.698;2023-07-24T11:42:01;18.51;92.20
67862;DHT22;54665;51.462;6.698;2023-07-24T11:44:01;18.53;92.06
67862;DHT22;54665;51.462;6.698;2023-07-24T11:46:01;18.63;91.94
67862;DHT22;54665;51.462;6.698;2023-07-24T11:48:02;18.82;91.95
67862;DHT22;54665;51.462;6.698;2023-07-24T11:50:02;18.96;92.19
67862;DHT22;54665;51.462;6.698;2023-07-24T11:52:04;19.31;91.53
67862;DHT22;54665;51.462;6.698;2023-07-24T11:54:09;19.77;91.01
67862;DHT22;54665;51.462;6.698;2023-07-24T11:56:19;20.28;90.41
67862;DHT22;54665;51.462;6.698;2023-07-24T11:58:20;20.73;90.28
67862;DHT22;54665;51.462;6.698;2023-07-24T12:00:22;21.15;89.56
67862;DHT22;54665;51.462;6.698;2023-07-24T12:02:22;22.09;88.93
67862;DHT22;54665;51.462;6.698;2023-07-24T12:04:22;22.50;88.40
67862;DHT22;54665;51.462;6.698;2023-07-24T12:06:23;22.88;86.84
67862;DHT22;54665;51.462;6.698;2023-07-24T12:08:34;22.64;85.00
67862;DHT22;54665;51.462;6.698;2023-07-24T12:10:38;22.50;86.68
67862;DHT22;54665;51.462;6.698;2023-07-24T12:12:46;22.02;84.08
67862;DHT22;54665;51.462;6.698;2023-07-24T12:14:46;22.14;85.85
67862;DHT22;54665;51.462;6.698;2023-07-24T12:16:47;21.56;84.70
67862;DHT22;54665;51.462;6.698;2023-07-24T12:18:47;21.81;84.33
67862;DHT22;54665;51.462;6.698;2023-07-24T12:20:47;22.13;83.37
67862;DHT22;54665;51.462;6.698;2023-07-24T12:22:48;22.23;84.58
67862;DHT22;54665;51.462;6.698;2023-07-24T12:24:48;21.79;83.10
67862;DHT22;54665;51.462;6.698;2023-07-24T12:26:48;21.99;83.48
67862;DHT22;54665;51.462;6.698;2023-07-24T12:28:49;21.67;83.94
67862;DHT22;54665;51.462;6.698;2023-07-24T12:30:49;20.91;83.63
67862;DHT22;54665;51.462;6.698;2023-07-24T12:32:49;20.69;84.92
67862;DHT22;54665;51.462;6.698;2023-07-24T12:34:51;21.28;84.92
67862;DHT22;54665;51.462;6.698;2023-07-24T12:36:51;21.38;85.05
67862;DHT22;54665;51.462;6.698;2023-07-24T12:38:52;21.01;84.38
67862;DHT22;54665;51.462;6.698;2023-07-24T12:40:52;21.02;84.22
67862;DHT22;54665;51.462;6.698;2023-07-24T12:42:52;21.25;84.90
67862;DHT22;54665;51.462;6.698;2023-07-24T12:44:52;21.92;84.91
67862;DHT22;54665;51.462;6.698;2023-07-24T12:46:53;22.41;83.95
67862;DHT22;54665;51.462;6.698;2023-07-24T12:48:53;22.98;80.94
67862;DHT22;54665;51.462;6.698;2023-07-24T12:50:53;23.62;76.89